sensor_id;sensor_type;location;lat;lon;timestamp;temperature;humidity
4813;DHT22;2420;51.202;8.698;2023-11-21T00:01:02;6.60;1.00
4813;DHT22;2420;51.202;8.698;2023-11-21T00:03:29;6.60;1.00
4813;DHT22;2420;51.202;8.698;2023-11-21T00:05:55;6.60;1.00
4813;DHT22;2420;51.202;8.698;2023-11-21T00:08:21;6.60;1.00
4813;DHT22;2420;51.202;8.698;2023-11-21T00:10:46;6.60;1.00
4813;DHT22;2420;51.202;8.698;2023-11-21T00:13:13;6.60;1.00
4813;DHT22;2420;51.202;8.698;2023-11-21T00:15:39;6.60;1.00
4813;DHT22;2420;51.202;8.698;2023-11-21T00:18:06;6.60;1.00
4813;DHT22;2420;51.202;8.698;2023-11-21T00:20:31;6.60;1.00
4813;DHT22;2420;51.202;8.698;2023-11-21T00:22:57;6.50;1.00
4813;DHT22;2420;51.202;8.698;2023-11-21T00:25:22;6.60;1.00
4813;DHT22;2420;51.202;8.698;2023-11-21T00:27:48;6.60;1.00
4813;DHT22;2420;51.202;8.698;2023-11-21T00:30:14;6.40;1.00
4813;DHT22;2420;51.202;8.698;2023-11-21T00:32:39;6.60;1.00
4813;DHT22;2420;51.202;8.698;2023-11-21T00:35:05;6.50;1.00
4813;DHT22;2420;51.202;8.698;2023-11-21T00:37:31;6.50;1.00
4813;DHT22;2420;51.202;8.698;2023-11-21T00:39:57;6.60;1.00
4813;DHT22;2420;51.202;8.698;2023-11-21T00:42:23;6.70;1.00
4813;DHT22;2420;51.202;8.698;2023-11-21T00:44:48;6.70;1.00
4813;DHT22;2420;51.202;8.698;2023-11-21T00:47:14;6.60;1.00
4813;DHT22;2420;51.202;8.698;2023-11-21T00:49:39;6.60;1.00
4813;DHT22;2420;51.202;8.698;2023-11-21T00:52:06;6.50;1.00
4813;DHT22;2420;51.202;8.698;2023-11-21T00:54:31;6.50;1.00
4813;DHT22;2420;51.202;8.698;2023-11-21T00:56:57;6.50;1.00
4813;DHT22;2420;51.202;8.698;2023-11-21T00:59:23;6.50;1.00
4813;DHT22;2420;51.202;8.698;2023-11-21T01:01:49;6.60;1.00
4813;DHT22;2420;51.202;8.698;2023-11-21T01:04:14;6.40;1.00
4813;DHT22;2420;51.202;8.698;2023-11-21T01:06:40;6.40;1.00
4813;DHT22;2420;51.202;8.698;2023-11-21T01:09:05;6.40;1.00
4813;DHT22;2420;51.202;8.698;2023-11-21T01:11:34;6.40;1.00
4813;DHT22;2420;51.202;8.698;2023-11-21T01:14:03;6.40;1.00
4813;DHT22;2420;51.202;8.698;2023-11-21T01:16:29;6.40;1.00
4813;DHT22;2420;51.202;8.698;2023-11-21T01:18:55;6.40;1.00
4813;DHT22;2420;51.202;8.698;2023-11-21T01:21:20;6.40;1.00
4813;DHT22;2420;51.202;8.698;2023-11-21T01:23:47;6.40;1.00
4813;DHT22;2420;51.202;8.698;2023-11-21T01:26:12;6.40;1.00
4813;DHT22;2420;51.202;8.698;2023-11-21T01:28:38;6.40;1.00
4813;DHT22;2420;51.202;8.698;2023-11-21T01:31:04;6.40;1.00
4813;DHT22;2420;51.202;8.698;2023-11-21T01:33:29;6.40;1.00
4813;DHT22;2420;51.202;8.698;2023-11-21T01:35:55;6.40;1.00
4813;DHT22;2420;51.202;8.698;2023-11-21T01:38:21;6.40;1.00
4813;DHT22;2420;51.202;8.698;2023-11-21T01:40:47;6.40;1.00
4813;DHT22;2420;51.202;8.698;2023-11-21T01:43:13;6.40;1.00
4813;DHT22;2420;51.202;8.698;2023-11-21T01:45:38;6.30;1.00
4813;DHT22;2420;51.202;8.698;2023-11-21T01:48:04;6.30;1.00
4813;DHT22;2420;51.202;8.698;2023-11-21T01:50:32;6.10;1.00
4813;DHT22;2420;51.202;8.698;2023-11-21T01:52:59;6.20;1.00
4813;DHT22;2420;51.202;8.698;2023-11-21T01:55:25;6.10;1.00
4813;DHT22;2420;51.202;8.698;2023-11-21T01:57:52;5.50;1.00
4813;DHT22;2420;51.202;8.698;2023-11-21T02:00:18;5.90;1.00
4813;DHT22;2420;51.202;8.698;2023-11-21T02:02:48;5.90;1.00
4813;DHT22;2420;51.202;8.698;2023-11-21T02:05:19;5.90;1.00
4813;DHT22;2420;51.202;8.698;2023-11-21T02:07:45;5.50;1.00
4813;DHT22;2420;51.202;8.698;2023-11-21T02:10:15;5.80;1.00
4813;DHT22;2420;51.202;8.698;2023-11-21T02:12:44;5.60;1.00
4813;DHT22;2420;51.202;8.698;2023-11-21T02:15:13;5.60;1.00
4813;DHT22;2420;51.202;8.698;2023-11-21T02:17:46;5.50;1.00
4813;DHT22;2420;51.202;8.698;2023-11-21T02:20:17;5.40;1.00
4813;DHT22;2420;51.202;8.698;2023-11-21T02:22:52;5.40;1.00
4813;DHT22;2420;51.202;8.698;2023-11-21T02:25:26;5.30;1.00
4813;DHT22;2420;51.202;8.698;2023-11-21T02:27:53;5.20;1.00
4813;DHT22;2420;51.202;8.698;2023-11-21T02:30:21;5.30;1.00
4813;DHT22;2420;51.202;8.698;2023-11-21T02:32:47;5.00;1.00
4813;DHT22;2420;51.202;8.698;2023-11-21T02:35:14;5.10;1.00
4813;DHT22;2420;51.202;8.698;2023-11-21T02:37:41;5.00;1.00
4813;DHT22;2420;51.202;8.698;2023-11-21T02:40:09;4.90;1.00
4813;DHT22;2420;51.202;8.698;2023-11-21T02:42:35;4.90;1.00
4813;DHT22;2420;51.202;8.698;2023-11-21T02:45:00;4.90;1.00
4813;DHT22;2420;51.202;8.698;2023-11-21T02:47:26;4.80;1.00
4813;DHT22;2420;51.202;8.698;2023-11-21T02:49:52;4.90;1.00
4813;DHT22;2420;51.202;8.698;2023-11-21T02:52:18;4.90;1.00
4813;DHT22;2420;51.202;8.698;2023-11-21T02:54:44;4.70;1.00
4813;DHT22;2420;51.202;8.698;2023-11-21T02:57:10;4.50;1.00
4813;DHT22;2420;51.202;8.698;2023-11-21T02:59:36;4.90;1.00
4813;DHT22;2420;51.202;8.698;2023-11-21T03:02:01;4.70;1.00
4813;DHT22;2420;51.202;8.698;2023-11-21T03:04:27;4.60;1.00
4813;DHT22;2420;51.202;8.698;2023-11-21T03:06:52;4.70;1.00
4813;DHT22;2420;51.202;8.698;2023-11-21T03:09:18;4.80;1.00
4813;DHT22;2420;51.202;8.698;2023-11-21T03:11:43;4.60;1.00
4813;DHT22;2420;51.202;8.698;2023-11-21T03:14:09;4.50;1.00
4813;DHT22;2420;51.202;8.698;2023-11-21T03:16:36;4.50;1.00
4813;DHT22;2420;51.202;8.698;2023-11-21T03:19:03;4.30;1.00
4813;DHT22;2420;51.202;8.698;2023-11-21T03:21:30;4.50;1.00
4813;DHT22;2420;51.202;8.698;2023-11-21T03:23:56;4.70;1.00
4813;DHT22;2420;51.202;8.698;2023-11-21T03:26:21;4.60;1.00
4813;DHT22;2420;51.202;8.698;2023-11-21T03:28:47;4.50;1.00
4813;DHT22;2420;51.202;8.698;2023-11-21T03:31:12;4.70;1.00
4813;DHT22;2420;51.202;8.698;2023-11-21T03:33:38;4.60;1.00
4813;DHT22;2420;51.202;8.698;2023-11-21T03:36:03;4.40;1.00
4813;DHT22;2420;51.202;8.698;2023-11-21T03:38:29;4.50;1.00
4813;DHT22;2420;51.202;8.698;2023-11-21T03:40:55;4.20;1.00
4813;DHT22;2420;51.202;8.698;2023-11-21T03:43:20;4.10;1.00
4813;DHT22;2420;51.202;8.698;2023-11-21T03:45:46;3.90;1.00
4813;DHT22;2420;51.202;8.698;2023-11-21T03:48:12;3.70;1.00
4813;DHT22;2420;51.202;8.698;2023-11-21T03:50:38;3.90;1.00
4813;DHT22;2420;51.202;8.698;2023-11-21T03:53:04;4.10;1.00
4813;DHT22;2420;51.202;8.698;2023-11-21T03:55:30;4.10;1.00
4813;DHT22;2420;51.202;8.698;2023-11-21T03:57:57;4.00;1.00
4813;DHT22;2420;51.202;8.698;2023-11-21T04:00:23;4.00;1.00
4813;DHT22;2420;51.202;8.698;2023-11-21T04:02:49;4.00;1.00
4813;DHT22;2420;51.202;8.698;2023-11-21T04:05:16;4.20;1.00
4813;DHT22;2420;51.202;8.698;2023-11-21T04:07:41;4.00;1.00
4813;DHT22;2420;51.202;8.698;2023-11-21T04:10:08;4.20;1.00
4813;DHT22;2420;51.202;8.698;2023-11-21T04:12:38;4.20;1.00
4813;DHT22;2420;51.202;8.698;2023-11-21T04:15:04;4.40;1.00
4813;DHT22;2420;51.202;8.698;2023-11-21T04:17:30;4.30;1.00
4813;DHT22;2420;51.202;8.698;2023-11-21T04:19:56;4.50;1.00
4813;DHT22;2420;51.202;8.698;2023-11-21T04:22:21;4.60;1.00
4813;DHT22;2420;51.202;8.698;2023-11-21T04:24:47;4.60;1.00
4813;DHT22;2420;51.202;8.698;2023-11-21T04:27:13;4.80;1.00
4813;DHT22;2420;51.202;8.698;2023-11-21T04:29:39;4.60;1.00
4813;DHT22;2420;51.202;8.698;2023-11-21T04:32:06;4.70;1.00
4813;DHT22;2420;51.202;8.698;2023-11-21T04:34:32;4.50;1.00
4813;DHT22;2420;51.202;8.698;2023-11-21T04:36:57;4.60;1.00
4813;DHT22;2420;51.202;8.698;2023-11-21T04:39:23;4.70;1.00
4813;DHT22;2420;51.202;8.698;2023-11-21T04:41:49;4.70;1.00
4813;DHT22;2420;51.202;8.698;2023-11-21T04:44:15;4.80;1.00
4813;DHT22;2420;51.202;8.698;2023-11-21T04:46:41;5.00;1.00
4813;DHT22;2420;51.202;8.698;2023-11-21T04:49:07;4.80;1.00
4813;DHT22;2420;51.202;8.698;2023-11-21T04:51:33;4.80;1.00
4813;DHT22;2420;51.202;8.698;2023-11-21T04:53:58;5.10;1.00
4813;DHT22;2420;51.202;8.698;2023-11-21T04:56:24;5.10;1.00
4813;DHT22;2420;51.202;8.698;2023-11-21T04:58:50;5.00;1.00
4813;DHT22;2420;51.202;8.698;2023-11-21T05:01:15;5.00;1.00
4813;DHT22;2420;51.202;8.698;2023-11-21T05:03:41;5.00;1.00
4813;DHT22;2420;51.202;8.698;2023-11-21T05:06:09;5.10;1.00
4813;DHT22;2420;51.202;8.698;2023-11-21T05:08:35;4.90;1.00
4813;DHT22;2420;51.202;8.698;2023-11-21T05:11:02;5.10;1.00
4813;DHT22;2420;51.202;8.698;2023-11-21T05:13:28;5.10;1.00
4813;DHT22;2420;51.202;8.698;2023-11-21T05:15:54;4.80;1.00
4813;DHT22;2420;51.202;8.698;2023-11-21T05:18:22;5.20;1.00
4813;DHT22;2420;51.202;8.698;2023-11-21T05:20:48;5.00;1.00
4813;DHT22;2420;51.202;8.698;2023-11-21T05:23:13;5.30;1.00
4813;DHT22;2420;51.202;8.698;2023-11-21T05:25:39;5.40;1.00
4813;DHT22;2420;51.202;8.698;2023-11-21T05:28:05;5.30;1.00
4813;DHT22;2420;51.202;8.698;2023-11-21T05:30:32;5.30;1.00
4813;DHT22;2420;51.202;8.698;2023-11-21T05:32:57;4.90;1.00
4813;DHT22;2420;51.202;8.698;2023-11-21T05:35:23;5.30;1.00
4813;DHT22;2420;51.202;8.698;2023-11-21T05:37:48;5.30;1.00
4813;DHT22;2420;51.202;8.698;2023-11-21T05:40:14;5.40;1.00
4813;DHT22;2420;51.202;8.698;2023-11-21T05:42:40;5.20;1.00
4813;DHT22;2420;51.202;8.698;2023-11-21T05:45:07;5.40;1.00
4813;DHT22;2420;51.202;8.698;2023-11-21T05:47:41;5.40;1.00
4813;DHT22;2420;51.202;8.698;2023-11-21T05:50:08;5.40;1.00
4813;DHT22;2420;51.202;8.698;2023-11-21T05:52:45;5.50;1.00
4813;DHT22;2420;51.202;8.698;2023-11-21T05:55:11;5.50;1.00
4813;DHT22;2420;51.202;8.698;2023-11-21T05:57:37;5.60;1.00
4813;DHT22;2420;51.202;8.698;2023-11-21T06:00:05;5.60;1.00
4813;DHT22;2420;51.202;8.698;2023-11-21T06:02:41;5.60;1.00
4813;DHT22;2420;51.202;8.698;2023-11-21T06:05:07;5.30;1.00
4813;DHT22;2420;51.202;8.698;2023-11-21T06:07:34;5.50;1.00
4813;DHT22;2420;51.202;8.698;2023-11-21T06:10:01;5.40;1.00
4813;DHT22;2420;51.202;8.698;2023-11-21T06:12:28;5.30;1.00
4813;DHT22;2420;51.202;8.698;2023-11-21T06:14:53;5.50;1.00
4813;DHT22;2420;51.202;8.698;2023-11-21T06:17:20;5.20;1.00
4813;DHT22;2420;51.202;8.698;2023-11-21T06:19:47;5.40;1.00
4813;DHT22;2420;51.202;8.698;2023-11-21T06:22:12;5.20;1.00
4813;DHT22;2420;51.202;8.698;2023-11-21T06:24:38;5.10;1.00
4813;DHT22;2420;51.202;8.698;2023-11-21T06:27:04;5.20;1.00
4813;DHT22;2420;51.202;8.698;2023-11-21T06:29:30;4.90;1.00
4813;DHT22;2420;51.202;8.698;2023-11-21T06:31:57;4.90;1.00
4813;DHT22;2420;51.202;8.698;2023-11-21T06:34:23;4.90;1.00
4813;DHT22;2420;51.202;8.698;2023-11-21T06:36:49;4.70;1.00
4813;DHT22;2420;51.202;8.698;2023-11-21T06:39:14;5.00;1.00
4813;DHT22;2420;51.202;8.698;2023-11-21T06:41:42;4.70;1.00
4813;DHT22;2420;51.202;8.698;2023-11-21T06:44:08;4.60;1.00
4813;DHT22;2420;51.202;8.698;2023-11-21T06:46:34;4.50;1.00
4813;DHT22;2420;51.202;8.698;2023-11-21T06:48:59;4.60;1.00
4813;DHT22;2420;51.202;8.698;2023-11-21T06:51:25;4.70;1.00
4813;DHT22;2420;51.202;8.698;2023-11-21T06:53:50;4.50;1.00
4813;DHT22;2420;51.202;8.698;2023-11-21T06:56:22;4.30;1.00
4813;DHT22;2420;51.202;8.698;2023-11-21T06:58:49;4.40;1.00
4813;DHT22;2420;51.202;8.698;2023-11-21T07:01:14;4.30;1.00
4813;DHT22;2420;51.202;8.698;2023-11-21T07:03:41;4.50;1.00
4813;DHT22;2420;51.202;8.698;2023-11-21T07:06:07;4.40;1.00
4813;DHT22;2420;51.202;8.698;2023-11-21T07:08:33;4.30;1.00
4813;DHT22;2420;51.202;8.698;2023-11-21T07:10:58;4.30;1.00
4813;DHT22;2420;51.202;8.698;2023-11-21T07:13:24;4.40;1.00
4813;DHT22;2420;51.202;8.698;2023-11-21T07:15:53;4.60;1.00
4813;DHT22;2420;51.202;8.698;2023-11-21T07:18:19;4.30;1.00
4813;DHT22;2420;51.202;8.698;2023-11-21T07:20:45;4.50;1.00
4813;DHT22;2420;51.202;8.698;2023-11-21T07:23:10;4.60;1.00
4813;DHT22;2420;51.202;8.698;2023-11-21T07:25:36;4.60;1.00
4813;DHT22;2420;51.202;8.698;2023-11-21T07:28:02;4.40;1.00
4813;DHT22;2420;51.202;8.698;2023-11-21T07:30:28;4.70;1.00
4813;DHT22;2420;51.202;8.698;2023-11-21T07:32:54;4.60;1.00
4813;DHT22;2420;51.202;8.698;2023-11-21T07:35:19;4.50;1.00
4813;DHT22;2420;51.202;8.698;2023-11-21T07:37:45;4.60;1.00
4813;DHT22;2420;51.202;8.698;2023-11-21T07:40:12;4.70;1.00
4813;DHT22;2420;51.202;8.698;2023-11-21T07:42:38;4.90;1.00
4813;DHT22;2420;51.202;8.698;2023-11-21T07:45:05;4.80;1.00
4813;DHT22;2420;51.202;8.698;2023-11-21T07:47:32;5.10;1.00
4813;DHT22;2420;51.202;8.698;2023-11-21T07:50:00;5.10;1.00
4813;DHT22;2420;51.202;8.698;2023-11-21T07:52:25;5.00;1.00
4813;DHT22;2420;51.202;8.698;2023-11-21T07:54:51;5.10;1.00
4813;DHT22;2420;51.202;8.698;2023-11-21T07:57:16;5.00;1.00
4813;DHT22;2420;51.202;8.698;2023-11-21T07:59:42;5.20;1.00
4813;DHT22;2420;51.202;8.698;2023-11-21T08:02:08;5.30;1.00
4813;DHT22;2420;51.202;8.698;2023-11-21T08:04:33;5.40;1.00
4813;DHT22;2420;51.202;8.698;2023-11-21T08:07:01;5.40;1.00
4813;DHT22;2420;51.202;8.698;2023-11-21T08:09:26;5.50;1.00
4813;DHT22;2420;51.202;8.698;2023-11-21T08:11:52;5.10;1.00
4813;DHT22;2420;51.202;8.698;2023-11-21T08:14:18;5.20;1.00
4813;DHT22;2420;51.202;8.698;2023-11-21T08:16:45;5.70;1.00
4813;DHT22;2420;51.202;8.698;2023-11-21T08:19:11;5.80;1.00
4813;DHT22;2420;51.202;8.698;2023-11-21T08:21:37;5.80;1.00
4813;DHT22;2420;51.202;8.698;2023-11-21T08:24:06;5.70;1.00
4813;DHT22;2420;51.202;8.698;2023-11-21T08:26:36;5.90;1.00
4813;DHT22;2420;51.202;8.698;2023-11-21T08:29:01;6.00;1.00
4813;DHT22;2420;51.202;8.698;2023-11-21T08:31:27;6.00;1.00
4813;DHT22;2420;51.202;8.698;2023-11-21T08:33:54;6.00;1.00
4813;DHT22;2420;51.202;8.698;2023-11-21T08:36:24;6.00;1.00
4813;DHT22;2420;51.202;8.698;2023-11-21T08:38:51;6.20;1.00
4813;DHT22;2420;51.202;8.698;2023-11-21T08:41:20;6.10;1.00
4813;DHT22;2420;51.202;8.698;2023-11-21T08:43:50;6.10;1.00
4813;DHT22;2420;51.202;8.698;2023-11-21T08:46:16;6.10;1.00
4813;DHT22;2420;51.202;8.698;2023-11-21T08:48:45;6.10;1.00
4813;DHT22;2420;51.202;8.698;2023-11-21T08:51:11;6.20;1.00
4813;DHT22;2420;51.202;8.698;2023-11-21T08:53:45;6.20;1.00
4813;DHT22;2420;51.202;8.698;2023-11-21T08:56:14;6.20;1.00
4813;DHT22;2420;51.202;8.698;2023-11-21T08:58:40;6.30;1.00
4813;DHT22;2420;51.202;8.698;2023-11-21T09:01:07;6.30;1.00
4813;DHT22;2420;51.202;8.698;2023-11-21T09:03:32;6.40;1.00
4813;DHT22;2420;51.202;8.698;2023-11-21T09:06:00;6.40;1.00
4813;DHT22;2420;51.202;8.698;2023-11-21T09:08:25;6.50;1.00
4813;DHT22;2420;51.202;8.698;2023-11-21T09:10:53;6.50;1.00
4813;DHT22;2420;51.202;8.698;2023-11-21T09:13:19;6.50;1.00
4813;DHT22;2420;51.202;8.698;2023-11-21T09:15:44;6.70;1.00
4813;DHT22;2420;51.202;8.698;2023-11-21T09:18:13;6.70;1.00
4813;DHT22;2420;51.202;8.698;2023-11-21T09:20:39;6.80;1.00
4813;DHT22;2420;51.202;8.698;2023-11-21T09:23:04;6.70;1.00
4813;DHT22;2420;51.202;8.698;2023-11-21T09:25:30;6.70;1.00
4813;DHT22;2420;51.202;8.698;2023-11-21T09:27:56;6.70;1.00
4813;DHT22;2420;51.202;8.698;2023-11-21T09:30:22;6.70;1.00
4813;DHT22;2420;51.202;8.698;2023-11-21T09:32:50;6.70;1.00
4813;DHT22;2420;51.202;8.698;2023-11-21T09:35:16;6.70;1.00
4813;DHT22;2420;51.202;8.698;2023-11-21T09:37:43;6.70;1.00
4813;DHT22;2420;51.202;8.698;2023-11-21T09:40:11;6.70;1.00
4813;DHT22;2420;51.202;8.698;2023-11-21T09:42:53;6.70;1.00
4813;DHT22;2420;51.202;8.698;2023-11-21T09:47:54;6.80;1.00
4813;DHT22;2420;51.202;8.698;2023-11-21T09:50:21;6.80;1.00
4813;DHT22;2420;51.202;8.698;2023-11-21T09:55:18;6.90;1.00
4813;DHT22;2420;51.202;8.698;2023-11-21T09:57:47;6.90;1.00
4813;DHT22;2420;51.202;8.698;2023-11-21T10:00:15;7.00;1.00
4813;DHT22;2420;51.202;8.698;2023-11-21T10:02:43;7.00;1.00
4813;DHT22;2420;51.202;8.698;2023-11-21T10:05:09;7.00;1.00
4813;DHT22;2420;51.202;8.698;2023-11-21T10:07:37;7.00;1.00
4813;DHT22;2420;51.202;8.698;2023-11-21T10:10:05;7.00;1.00
4813;DHT22;2420;51.202;8.698;2023-11-21T10:12:31;7.10;1.00
4813;DHT22;2420;51.202;8.698;2023-11-21T10:14:58;7.10;1.00
4813;DHT22;2420;51.202;8.698;2023-11-21T10:17:25;7.10;1.00
4813;DHT22;2420;51.202;8.698;2023-11-21T10:19:56;7.00;1.00
4813;DHT22;2420;51.202;8.698;2023-11-21T10:22:22;7.00;1.00
4813;DHT22;2420;51.202;8.698;2023-11-21T10:24:49;7.00;1.00
4813;DHT22;2420;51.202;8.698;2023-11-21T10:27:15;7.10;1.00
4813;DHT22;2420;51.202;8.698;2023-11-21T10:29:40;7.10;1.00
4813;DHT22;2420;51.202;8.698;2023-11-21T10:32:07;7.20;1.00
4813;DHT22;2420;51.202;8.698;2023-11-21T10:34:33;7.20;1.00
4813;DHT22;2420;51.202;8.698;2023-11-21T10:37:11;7.30;1.00
4813;DHT22;2420;51.202;8.698;2023-11-21T10:39:36;7.30;1.00
4813;DHT22;2420;51.202;8.698;2023-11-21T10:42:02;7.40;1.00
4813;DHT22;2420;51.202;8.698;2023-11-21T10:44:28;7.40;1.00
4813;DHT22;2420;51.202;8.698;2023-11-21T10:46:54;7.40;1.00
4813;DHT22;2420;51.202;8.698;2023-11-21T10:49:24;7.50;1.00
4813;DHT22;2420;51.202;8.698;2023-11-21T10:51:51;7.50;1.00
4813;DHT22;2420;51.202;8.698;2023-11-21T10:54:19;7.60;1.00
4813;DHT22;2420;51.202;8.698;2023-11-21T10:56:47;7.60;1.00
4813;DHT22;2420;51.202;8.698;2023-11-21T10:59:13;7.70;1.00
4813;DHT22;2420;51.202;8.698;2023-11-21T11:01:42;7.70;1.00
4813;DHT22;2420;51.202;8.698;2023-11-21T11:04:09;7.70;1.00
4813;DHT22;2420;51.202;8.698;2023-11-21T11:06:42;7.70;1.00
4813;DHT22;2420;51.202;8.698;2023-11-21T11:09:10;7.80;1.00
4813;DHT22;2420;51.202;8.698;2023-11-21T11:11:41;7.80;1.00
4813;DHT22;2420;51.202;8.698;2023-11-21T11:14:11;7.80;1.00
4813;DHT22;2420;51.202;8.698;2023-11-21T11:16:39;7.80;1.00
4813;DHT22;2420;51.202;8.698;2023-11-21T11:19:10;7.80;1.00
4813;DHT22;2420;51.202;8.698;2023-11-21T11:30:02;8.00;1.00
4813;DHT22;2420;51.202;8.698;2023-11-21T11:32:55;8.00;1.00
4813;DHT22;2420;51.202;8.698;2023-11-21T11:35:28;7.90;1.00
4813;DHT22;2420;51.202;8.698;2023-11-21T11:37:59;7.90;1.00
4813;DHT22;2420;51.202;8.698;2023-11-21T11:40:41;7.90;1.00
4813;DHT22;2420;51.202;8.698;2023-11-21T11:43:10;8.10;1.00
4813;DHT22;2420;51.202;8.698;2023-11-21T11:45:35;8.10;1.00
4813;DHT22;2420;51.202;8.698;2023-11-21T11:48:03;8.10;1.00
4813;DHT22;2420;51.202;8.698;2023-11-21T11:50:29;8.10;1.00
4813;DHT22;2420;51.202;8.698;2023-11-21T11:52:57;8.10;1.00
4813;DHT22;2420;51.202;8.698;2023-11-21T11:55:36;8.10;1.00
4813;DHT22;2420;51.202;8.698;2023-11-21T11:58:06;8.10;1.00
4813;DHT22;2420;51.202;8.698;2023-11-21T12:00:35;8.10;1.00
4813;DHT22;2420;51.202;8.698;2023-11-21T12:03:04;8.10;1.00
4813;DHT22;2420;51.202;8.698;2023-11-21T12:05:32;8.10;1.00
4813;DHT22;2420;51.202;8.698;2023-11-21T12:08:00;8.00;1.00
4813;DHT22;2420;51.202;8.698;2023-11-21T12:10:28;8.00;1.00
4813;DHT22;2420;51.202;8.698;2023-11-21T12:12:58;8.00;1.00
4813;DHT22;2420;51.202;8.698;2023-11-21T12:15:25;8.00;1.00
4813;DHT22;2420;51.202;8.698;2023-11-21T12:17:51;8.00;1.00
4813;DHT22;2420;51.202;8.698;2023-11-21T12:20:21;8.00;1.00
4813;DHT22;2420;51.202;8.698;2023-11-21T12:22:58;8.10;1.00
4813;DHT22;2420;51.202;8.698;2023-11-21T12:25:26;8.00;1.00
4813;DHT22;2420;51.202;8.698;2023-11-21T12:27:56;8.10;1.00
4813;DHT22;2420;51.202;8.698;2023-11-21T12:30:25;8.00;1.00
4813;DHT22;2420;51.202;8.698;2023-11-21T12:32:54;8.00;1.00
4813;DHT22;2420;51.202;8.698;2023-11-21T12:35:23;8.00;1.00
4813;DHT22;2420;51.202;8.698;2023-11-21T12:37:49;7.90;1.00
4813;DHT22;2420;51.202;8.698;2023-11-21T12:40:16;7.90;1.00
4813;DHT22;2420;51.202;8.698;2023-11-21T12:42:47;7.90;1.00
4813;DHT22;2420;51.202;8.698;2023-11-21T12:47:47;7.90;1.00
4813;DHT22;2420;51.202;8.698;2023-11-21T12:50:15;7.90;1.00
4813;DHT22;2420;51.202;8.698;2023-11-21T12:52:45;7.90;1.00
4813;DHT22;2420;51.202;8.698;2023-11-21T12:55:15;7.90;1.00
4813;DHT22;2420;51.202;8.698;2023-11-21T12:57:45;7.90;1.00
4813;DHT22;2420;51.202;8.698;2023-11-21T13:00:12;8.00;1.00
4813;DHT22;2420;51.202;8.698;2023-11-21T13:02:43;8.00;1.00
4813;DHT22;2420;51.202;8.698;2023-11-21T13:05:09;8.00;1.00
4813;DHT22;2420;51.202;8.698;2023-11-21T13:07:47;7.90;1.00
4813;DHT22;2420;51.202;8.698;2023-11-21T13:10:14;8.00;1.00
4813;DHT22;2420;51.202;8.698;2023-11-21T13:12:46;8.10;1.00
4813;DHT22;2420;51.202;8.698;2023-11-21T13:15:17;8.00;1.00
4813;DHT22;2420;51.202;8.698;2023-11-21T13:17:43;8.00;1.00
4813;DHT22;2420;51.202;8.698;2023-11-21T13:20:12;8.00;1.00
4813;DHT22;2420;51.202;8.698;2023-11-21T13:22:55;8.00;1.00
4813;DHT22;2420;51.202;8.698;2023-11-21T13:25:29;8.00;1.00
4813;DHT22;2420;51.202;8.698;2023-11-21T13:27:57;8.00;1.00
4813;DHT22;2420;51.202;8.698;2023-11-21T13:30:24;8.00;1.00
4813;DHT22;2420;51.202;8.698;2023-11-21T13:33:05;8.00;1.00
4813;DHT22;2420;51.202;8.698;2023-11-21T13:35:36;8.00;1.00
4813;DHT22;2420;51.202;8.698;2023-11-21T13:38:14;8.00;1.00
4813;DHT22;2420;51.202;8.698;2023-11-21T13:40:41;8.00;1.00
4813;DHT22;2420;51.202;8.698;2023-11-21T13:43:18;8.00;1.00
4813;DHT22;2420;51.202;8.698;2023-11-21T13:45:44;7.90;1.00
4813;DHT22;2420;51.202;8.698;2023-11-21T13:48:11;7.80;1.00
4813;DHT22;2420;51.202;8.698;2023-11-21T13:50:46;7.80;1.00
4813;DHT22;2420;51.202;8.698;2023-11-21T13:53:34;7.80;1.00
4813;DHT22;2420;51.202;8.698;2023-11-21T13:56:03;7.80;1.00
4813;DHT22;2420;51.202;8.698;2023-11-21T13:58:29;7.80;1.00
4813;DHT22;2420;51.202;8.698;2023-11-21T14:01:12;7.80;1.00
4813;DHT22;2420;51.202;8.698;2023-11-21T14:04:00;7.70;1.00
4813;DHT22;2420;51.202;8.698;2023-11-21T14:06:43;7.80;1.00
4813;DHT22;2420;51.202;8.698;2023-11-21T14:09:22;7.70;1.00
4813;DHT22;2420;51.202;8.698;2023-11-21T14:11:51;7.70;1.00
4813;DHT22;2420;51.202;8.698;2023-11-21T14:14:23;7.60;1.00
4813;DHT22;2420;51.202;8.698;2023-11-21T14:16:53;7.60;1.00
4813;DHT22;2420;51.202;8.698;2023-11-21T14:19:19;7.60;1.00
4813;DHT22;2420;51.202;8.698;2023-11-21T14:21:45;7.60;1.00
4813;DHT22;2420;51.202;8.698;2023-11-21T14:24:18;7.60;1.00
4813;DHT22;2420;51.202;8.698;2023-11-21T14:26:45;7.70;1.00
4813;DHT22;2420;51.202;8.698;2023-11-21T14:29:12;7.70;1.00
4813;DHT22;2420;51.202;8.698;2023-11-21T14:31:40;7.70;1.00
4813;DHT22;2420;51.202;8.698;2023-11-21T14:34:06;7.70;1.00
4813;DHT22;2420;51.202;8.698;2023-11-21T14:36:33;7.70;1.00
4813;DHT22;2420;51.202;8.698;2023-11-21T14:38:59;7.60;1.00
4813;DHT22;2420;51.202;8.698;2023-11-21T14:41:24;7.60;1.00
4813;DHT22;2420;51.202;8.698;2023-11-21T14:43:51;7.50;1.00
4813;DHT22;2420;51.202;8.698;2023-11-21T14:46:16;7.50;1.00
4813;DHT22;2420;51.202;8.698;2023-11-21T14:48:45;7.50;1.00
4813;DHT22;2420;51.202;8.698;2023-11-21T14:51:27;7.60;1.00
4813;DHT22;2420;51.202;8.698;2023-11-21T14:53:59;7.60;1.00
4813;DHT22;2420;51.202;8.698;2023-11-21T14:56:35;7.40;1.00
4813;DHT22;2420;51.202;8.698;2023-11-21T14:59:03;7.30;1.00
4813;DHT22;2420;51.202;8.698;2023-11-21T15:01:38;7.20;1.00
4813;DHT22;2420;51.202;8.698;2023-11-21T15:04:21;7.10;1.00
4813;DHT22;2420;51.202;8.698;2023-11-21T15:07:06;7.00;1.00
4813;DHT22;2420;51.202;8.698;2023-11-21T15:09:32;7.00;1.00
4813;DHT22;2420;51.202;8.698;2023-11-21T15:11:58;6.90;1.00
4813;DHT22;2420;51.202;8.698;2023-11-21T15:14:29;6.90;1.00
4813;DHT22;2420;51.202;8.698;2023-11-21T15:16:57;6.80;1.00
4813;DHT22;2420;51.202;8.698;2023-11-21T15:19:25;6.80;1.00
4813;DHT22;2420;51.202;8.698;2023-11-21T15:21:51;6.80;1.00
4813;DHT22;2420;51.202;8.698;2023-11-21T15:24:17;6.70;1.00
4813;DHT22;2420;51.202;8.698;2023-11-21T15:26:42;6.70;1.00
4813;DHT22;2420;51.202;8.698;2023-11-21T15:29:08;6.60;1.00
4813;DHT22;2420;51.202;8.698;2023-11-21T15:31:34;6.50;1.00
4813;DHT22;2420;51.202;8.698;2023-11-21T15:34:01;6.30;1.00
4813;DHT22;2420;51.202;8.698;2023-11-21T15:36:27;6.20;1.00
4813;DHT22;2420;51.202;8.698;2023-11-21T15:38:53;6.10;1.00
4813;DHT22;2420;51.202;8.698;2023-11-21T15:41:19;6.00;1.00
4813;DHT22;2420;51.202;8.698;2023-11-21T15:43:45;5.90;1.00
4813;DHT22;2420;51.202;8.698;2023-11-21T15:46:13;5.80;1.00
4813;DHT22;2420;51.202;8.698;2023-11-21T15:48:38;5.90;1.00
4813;DHT22;2420;51.202;8.698;2023-11-21T15:51:08;5.70;1.00
4813;DHT22;2420;51.202;8.698;2023-11-21T15:53:37;5.60;1.00
4813;DHT22;2420;51.202;8.698;2023-11-21T15:56:07;5.50;1.00
4813;DHT22;2420;51.202;8.698;2023-11-21T15:58:37;5.40;1.00
4813;DHT22;2420;51.202;8.698;2023-11-21T16:01:02;5.70;1.00
4813;DHT22;2420;51.202;8.698;2023-11-21T16:03:28;5.40;1.00
4813;DHT22;2420;51.202;8.698;2023-11-21T16:05:57;5.30;1.00
4813;DHT22;2420;51.202;8.698;2023-11-21T16:08:22;5.40;1.00
4813;DHT22;2420;51.202;8.698;2023-11-21T16:10:48;5.30;1.00
4813;DHT22;2420;51.202;8.698;2023-11-21T16:13:14;5.30;1.00
4813;DHT22;2420;51.202;8.698;2023-11-21T16:15:39;5.60;1.00
4813;DHT22;2420;51.202;8.698;2023-11-21T16:18:05;5.30;1.00
4813;DHT22;2420;51.202;8.698;2023-11-21T16:20:30;5.20;1.00
4813;DHT22;2420;51.202;8.698;2023-11-21T16:22:56;5.20;1.00
4813;DHT22;2420;51.202;8.698;2023-11-21T16:25:21;5.40;1.00
4813;DHT22;2420;51.202;8.698;2023-11-21T16:27:47;5.40;1.00
4813;DHT22;2420;51.202;8.698;2023-11-21T16:30:12;5.20;1.00
4813;DHT22;2420;51.202;8.698;2023-11-21T16:32:39;5.30;1.00
4813;DHT22;2420;51.202;8.698;2023-11-21T16:35:05;5.30;1.00
4813;DHT22;2420;51.202;8.698;2023-11-21T16:37:31;5.20;1.00
4813;DHT22;2420;51.202;8.698;2023-11-21T16:39:59;5.50;1.00
4813;DHT22;2420;51.202;8.698;2023-11-21T16:42:25;5.20;1.00
4813;DHT22;2420;51.202;8.698;2023-11-21T16:44:53;5.20;1.00
4813;DHT22;2420;51.202;8.698;2023-11-21T16:47:19;5.30;1.00
4813;DHT22;2420;51.202;8.698;2023-11-21T16:49:44;5.20;1.00
4813;DHT22;2420;51.202;8.698;2023-11-21T16:52:10;5.10;1.00